sensor_id;sensor_type;location;lat;lon;timestamp;P1;durP1;ratioP1;P2;durP2;ratioP2
19255;SDS011;9762;52.490;13.410;2023-04-15T00:00:08;15.83;;;14.33;;
19255;SDS011;9762;52.490;13.410;2023-04-15T00:02:34;15.40;;;13.90;;
19255;SDS011;9762;52.490;13.410;2023-04-15T00:05:01;15.07;;;13.57;;
19255;SDS011;9762;52.490;13.410;2023-04-15T00:07:26;16.07;;;13.70;;
19255;SDS011;9762;52.490;13.410;2023-04-15T00:09:53;16.10;;;14.50;;
19255;SDS011;9762;52.490;13.410;2023-04-15T00:12:21;16.40;;;14.80;;
19255;SDS011;9762;52.490;13.410;2023-04-15T00:14:48;16.03;;;14.53;;
19255;SDS011;9762;52.490;13.410;2023-04-15T00:17:14;17.57;;;15.77;;
19255;SDS011;9762;52.490;13.410;2023-04-15T00:19:39;18.07;;;16.17;;
19255;SDS011;9762;52.490;13.410;2023-04-15T00:22:05;17.97;;;15.53;;
19255;SDS011;9762;52.490;13.410;2023-04-15T00:24:32;17.20;;;15.47;;
19255;SDS011;9762;52.490;13.410;2023-04-15T00:26:58;16.43;;;14.80;;
19255;SDS011;9762;52.490;13.410;2023-04-15T00:29:24;19.37;;;16.10;;
19255;SDS011;9762;52.490;13.410;2023-04-15T00:31:50;19.80;;;17.80;;
19255;SDS011;9762;52.490;13.410;2023-04-15T00:34:16;19.20;;;17.20;;
19255;SDS011;9762;52.490;13.410;2023-04-15T00:36:41;19.00;;;16.47;;
19255;SDS011;9762;52.490;13.410;2023-04-15T00:39:07;18.00;;;16.20;;
19255;SDS011;9762;52.490;13.410;2023-04-15T00:41:33;18.63;;;16.63;;
19255;SDS011;9762;52.490;13.410;2023-04-15T00:43:59;19.40;;;17.50;;
19255;SDS011;9762;52.490;13.410;2023-04-15T00:46:27;19.13;;;17.23;;
19255;SDS011;9762;52.490;13.410;2023-04-15T00:48:55;19.33;;;17.33;;
19255;SDS011;9762;52.490;13.410;2023-04-15T00:51:21;18.53;;;16.73;;
19255;SDS011;9762;52.490;13.410;2023-04-15T00:53:47;20.10;;;18.00;;
19255;SDS011;9762;52.490;13.410;2023-04-15T00:56:13;21.30;;;19.07;;
19255;SDS011;9762;52.490;13.410;2023-04-15T00:58:38;21.20;;;18.77;;
19255;SDS011;9762;52.490;13.410;2023-04-15T01:01:04;20.07;;;17.97;;
19255;SDS011;9762;52.490;13.410;2023-04-15T01:03:30;19.93;;;17.83;;
19255;SDS011;9762;52.490;13.410;2023-04-15T01:05:55;21.23;;;18.97;;
19255;SDS011;9762;52.490;13.410;2023-04-15T01:08:27;20.03;;;18.03;;
19255;SDS011;9762;52.490;13.410;2023-04-15T01:10:54;21.77;;;18.63;;
19255;SDS011;9762;52.490;13.410;2023-04-15T01:13:22;21.03;;;18.77;;
19255;SDS011;9762;52.490;13.410;2023-04-15T01:15:48;22.43;;;19.60;;
19255;SDS011;9762;52.490;13.410;2023-04-15T01:18:14;20.43;;;18.23;;
19255;SDS011;9762;52.490;13.410;2023-04-15T01:20:40;22.97;;;19.70;;
19255;SDS011;9762;52.490;13.410;2023-04-15T01:23:06;23.10;;;20.13;;
19255;SDS011;9762;52.490;13.410;2023-04-15T01:25:32;22.70;;;20.27;;
19255;SDS011;9762;52.490;13.410;2023-04-15T01:27:59;21.73;;;19.40;;
19255;SDS011;9762;52.490;13.410;2023-04-15T01:30:25;22.87;;;19.73;;
19255;SDS011;9762;52.490;13.410;2023-04-15T01:32:53;26.33;;;20.67;;
19255;SDS011;9762;52.490;13.410;2023-04-15T01:35:20;22.63;;;19.27;;
19255;SDS011;9762;52.490;13.410;2023-04-15T01:37:46;22.73;;;20.33;;
19255;SDS011;9762;52.490;13.410;2023-04-15T01:40:12;23.17;;;19.97;;
19255;SDS011;9762;52.490;13.410;2023-04-15T01:42:38;25.03;;;20.37;;
19255;SDS011;9762;52.490;13.410;2023-04-15T01:45:03;24.13;;;20.23;;
19255;SDS011;9762;52.490;13.410;2023-04-15T01:47:30;27.47;;;21.70;;
19255;SDS011;9762;52.490;13.410;2023-04-15T01:49:56;22.63;;;19.50;;
19255;SDS011;9762;52.490;13.410;2023-04-15T01:52:21;22.97;;;19.87;;
19255;SDS011;9762;52.490;13.410;2023-04-15T01:54:47;25.73;;;20.50;;
19255;SDS011;9762;52.490;13.410;2023-04-15T01:57:13;23.60;;;21.10;;
19255;SDS011;9762;52.490;13.410;2023-04-15T01:59:38;26.40;;;21.50;;
19255;SDS011;9762;52.490;13.410;2023-04-15T02:02:05;26.23;;;21.17;;
19255;SDS011;9762;52.490;13.410;2023-04-15T02:04:30;23.27;;;20.23;;
19255;SDS011;9762;52.490;13.410;2023-04-15T02:06:56;27.30;;;22.37;;
19255;SDS011;9762;52.490;13.410;2023-04-15T02:09:22;23.57;;;19.83;;
19255;SDS011;9762;52.490;13.410;2023-04-15T02:11:47;23.57;;;21.07;;
19255;SDS011;9762;52.490;13.410;2023-04-15T02:14:15;23.67;;;20.63;;
19255;SDS011;9762;52.490;13.410;2023-04-15T02:16:41;28.50;;;20.83;;
19255;SDS011;9762;52.490;13.410;2023-04-15T02:19:06;29.60;;;22.20;;
19255;SDS011;9762;52.490;13.410;2023-04-15T02:21:32;24.73;;;20.00;;
19255;SDS011;9762;52.490;13.410;2023-04-15T02:23:59;26.60;;;20.10;;
19255;SDS011;9762;52.490;13.410;2023-04-15T02:26:26;24.73;;;21.10;;
19255;SDS011;9762;52.490;13.410;2023-04-15T02:28:52;29.63;;;21.97;;
19255;SDS011;9762;52.490;13.410;2023-04-15T02:31:17;25.80;;;21.57;;
19255;SDS011;9762;52.490;13.410;2023-04-15T02:33:43;27.07;;;22.43;;
19255;SDS011;9762;52.490;13.410;2023-04-15T02:36:09;23.33;;;20.73;;
19255;SDS011;9762;52.490;13.410;2023-04-15T02:38:36;27.83;;;21.90;;
19255;SDS011;9762;52.490;13.410;2023-04-15T02:41:04;24.60;;;21.07;;
19255;SDS011;9762;52.490;13.410;2023-04-15T02:43:29;24.13;;;20.17;;
19255;SDS011;9762;52.490;13.410;2023-04-15T02:45:55;24.73;;;20.00;;
19255;SDS011;9762;52.490;13.410;2023-04-15T02:48:21;25.57;;;20.60;;
19255;SDS011;9762;52.490;13.410;2023-04-15T02:50:47;22.90;;;19.33;;
19255;SDS011;9762;52.490;13.410;2023-04-15T02:53:12;25.50;;;19.93;;
19255;SDS011;9762;52.490;13.410;2023-04-15T02:55:38;24.90;;;19.97;;
19255;SDS011;9762;52.490;13.410;2023-04-15T02:58:04;25.57;;;20.67;;
19255;SDS011;9762;52.490;13.410;2023-04-15T03:00:31;25.60;;;20.30;;
19255;SDS011;9762;52.490;13.410;2023-04-15T03:02:57;25.70;;;20.97;;
19255;SDS011;9762;52.490;13.410;2023-04-15T03:05:25;27.37;;;20.87;;
19255;SDS011;9762;52.490;13.410;2023-04-15T03:07:51;25.40;;;20.17;;
19255;SDS011;9762;52.490;13.410;2023-04-15T03:10:16;24.93;;;20.57;;
19255;SDS011;9762;52.490;13.410;2023-04-15T03:12:42;24.30;;;21.03;;
19255;SDS011;9762;52.490;13.410;2023-04-15T03:15:08;23.53;;;20.30;;
19255;SDS011;9762;52.490;13.410;2023-04-15T03:17:34;24.97;;;21.10;;
19255;SDS011;9762;52.490;13.410;2023-04-15T03:20:01;25.23;;;21.33;;
19255;SDS011;9762;52.490;13.410;2023-04-15T03:22:29;23.30;;;20.63;;
19255;SDS011;9762;52.490;13.410;2023-04-15T03:24:55;24.10;;;21.00;;
19255;SDS011;9762;52.490;13.410;2023-04-15T03:27:21;28.30;;;19.97;;
19255;SDS011;9762;52.490;13.410;2023-04-15T03:29:47;25.93;;;20.80;;
19255;SDS011;9762;52.490;13.410;2023-04-15T03:32:12;29.00;;;20.40;;
19255;SDS011;9762;52.490;13.410;2023-04-15T03:34:39;27.37;;;20.27;;
19255;SDS011;9762;52.490;13.410;2023-04-15T03:37:05;25.03;;;20.10;;
19255;SDS011;9762;52.490;13.410;2023-04-15T03:39:31;25.57;;;20.50;;
19255;SDS011;9762;52.490;13.410;2023-04-15T03:41:57;24.10;;;20.43;;
19255;SDS011;9762;52.490;13.410;2023-04-15T03:44:24;26.17;;;20.53;;
19255;SDS011;9762;52.490;13.410;2023-04-15T03:46:50;25.50;;;20.60;;
19255;SDS011;9762;52.490;13.410;2023-04-15T03:49:16;27.90;;;20.10;;
19255;SDS011;9762;52.490;13.410;2023-04-15T03:51:43;25.47;;;19.57;;
19255;SDS011;9762;52.490;13.410;2023-04-15T03:54:08;24.70;;;19.83;;
19255;SDS011;9762;52.490;13.410;2023-04-15T03:56:34;27.60;;;19.23;;
19255;SDS011;9762;52.490;13.410;2023-04-15T03:59:00;21.93;;;18.93;;
19255;SDS011;9762;52.490;13.410;2023-04-15T04:01:25;22.67;;;19.03;;
19255;SDS011;9762;52.490;13.410;2023-04-15T04:03:51;20.50;;;18.00;;
19255;SDS011;9762;52.490;13.410;2023-04-15T04:06:17;25.07;;;18.60;;
19255;SDS011;9762;52.490;13.410;2023-04-15T04:08:42;24.83;;;18.33;;
19255;SDS011;9762;52.490;13.410;2023-04-15T04:11:08;27.27;;;19.30;;
19255;SDS011;9762;52.490;13.410;2023-04-15T04:13:34;20.03;;;17.10;;
19255;SDS011;9762;52.490;13.410;2023-04-15T04:16:00;21.53;;;18.13;;
19255;SDS011;9762;52.490;13.410;2023-04-15T04:18:25;21.10;;;17.97;;
19255;SDS011;9762;52.490;13.410;2023-04-15T04:20:51;19.63;;;17.13;;
19255;SDS011;9762;52.490;13.410;2023-04-15T04:23:16;20.90;;;18.30;;
19255;SDS011;9762;52.490;13.410;2023-04-15T04:25:42;22.67;;;17.53;;
19255;SDS011;9762;52.490;13.410;2023-04-15T04:28:08;21.63;;;17.03;;
19255;SDS011;9762;52.490;13.410;2023-04-15T04:30:34;24.90;;;17.47;;
19255;SDS011;9762;52.490;13.410;2023-04-15T04:33:00;20.27;;;18.07;;
19255;SDS011;9762;52.490;13.410;2023-04-15T04:35:25;25.23;;;18.23;;
19255;SDS011;9762;52.490;13.410;2023-04-15T04:37:51;18.67;;;16.70;;
19255;SDS011;9762;52.490;13.410;2023-04-15T04:40:17;22.23;;;16.97;;
19255;SDS011;9762;52.490;13.410;2023-04-15T04:42:43;21.40;;;17.37;;
19255;SDS011;9762;52.490;13.410;2023-04-15T04:45:09;21.17;;;18.10;;
19255;SDS011;9762;52.490;13.410;2023-04-15T04:47:35;17.83;;;15.67;;
19255;SDS011;9762;52.490;13.410;2023-04-15T04:50:00;20.53;;;17.23;;
19255;SDS011;9762;52.490;13.410;2023-04-15T04:52:26;20.43;;;16.43;;
19255;SDS011;9762;52.490;13.410;2023-04-15T04:54:51;23.97;;;16.87;;
19255;SDS011;9762;52.490;13.410;2023-04-15T04:57:17;19.37;;;16.20;;
19255;SDS011;9762;52.490;13.410;2023-04-15T04:59:43;18.00;;;15.50;;
19255;SDS011;9762;52.490;13.410;2023-04-15T05:02:08;17.07;;;15.20;;
19255;SDS011;9762;52.490;13.410;2023-04-15T05:04:35;19.07;;;15.47;;
19255;SDS011;9762;52.490;13.410;2023-04-15T05:07:01;19.07;;;15.67;;
19255;SDS011;9762;52.490;13.410;2023-04-15T05:09:26;19.57;;;15.33;;
19255;SDS011;9762;52.490;13.410;2023-04-15T05:11:53;17.27;;;14.93;;
19255;SDS011;9762;52.490;13.410;2023-04-15T05:14:18;19.20;;;15.87;;
19255;SDS011;9762;52.490;13.410;2023-04-15T05:16:44;16.73;;;14.90;;
19255;SDS011;9762;52.490;13.410;2023-04-15T05:19:10;15.53;;;13.67;;
19255;SDS011;9762;52.490;13.410;2023-04-15T05:21:35;16.87;;;14.50;;
19255;SDS011;9762;52.490;13.410;2023-04-15T05:24:01;17.50;;;15.13;;
19255;SDS011;9762;52.490;13.410;2023-04-15T05:26:27;19.23;;;15.23;;
19255;SDS011;9762;52.490;13.410;2023-04-15T05:28:52;14.93;;;12.73;;
19255;SDS011;9762;52.490;13.410;2023-04-15T05:31:19;15.73;;;14.13;;
19255;SDS011;9762;52.490;13.410;2023-04-15T05:33:44;16.37;;;14.43;;
19255;SDS011;9762;52.490;13.410;2023-04-15T05:36:10;14.90;;;13.30;;
19255;SDS011;9762;52.490;13.410;2023-04-15T05:38:36;14.00;;;12.50;;
19255;SDS011;9762;52.490;13.410;2023-04-15T05:41:01;14.73;;;12.93;;
19255;SDS011;9762;52.490;13.410;2023-04-15T05:43:27;12.00;;;10.90;;
19255;SDS011;9762;52.490;13.410;2023-04-15T05:45:53;13.73;;;12.30;;
19255;SDS011;9762;52.490;13.410;2023-04-15T05:48:18;12.97;;;11.67;;
19255;SDS011;9762;52.490;13.410;2023-04-15T05:50:44;15.10;;;12.00;;
19255;SDS011;9762;52.490;13.410;2023-04-15T05:53:10;12.87;;;11.00;;
19255;SDS011;9762;52.490;13.410;2023-04-15T05:55:35;13.23;;;11.80;;
19255;SDS011;9762;52.490;13.410;2023-04-15T05:58:01;12.90;;;11.60;;
19255;SDS011;9762;52.490;13.410;2023-04-15T06:00:27;13.37;;;11.80;;
19255;SDS011;9762;52.490;13.410;2023-04-15T06:02:53;12.37;;;11.10;;
19255;SDS011;9762;52.490;13.410;2023-04-15T06:05:20;14.17;;;11.30;;
19255;SDS011;9762;52.490;13.410;2023-04-15T06:07:47;13.33;;;11.70;;
19255;SDS011;9762;52.490;13.410;2023-04-15T06:10:13;13.63;;;11.50;;
19255;SDS011;9762;52.490;13.410;2023-04-15T06:12:39;12.90;;;11.00;;
19255;SDS011;9762;52.490;13.410;2023-04-15T06:15:05;13.73;;;10.43;;
19255;SDS011;9762;52.490;13.410;2023-04-15T06:17:31;11.60;;;10.43;;
19255;SDS011;9762;52.490;13.410;2023-04-15T06:19:56;12.63;;;10.30;;
19255;SDS011;9762;52.490;13.410;2023-04-15T06:22:22;12.33;;;11.17;;
19255;SDS011;9762;52.490;13.410;2023-04-15T06:24:48;13.60;;;11.30;;
19255;SDS011;9762;52.490;13.410;2023-04-15T06:27:15;12.17;;;10.27;;
19255;SDS011;9762;52.490;13.410;2023-04-15T06:29:41;11.70;;;10.57;;
19255;SDS011;9762;52.490;13.410;2023-04-15T06:32:06;11.63;;;10.30;;
19255;SDS011;9762;52.490;13.410;2023-04-15T06:34:32;10.67;;;9.63;;
19255;SDS011;9762;52.490;13.410;2023-04-15T06:36:58;11.87;;;10.67;;
19255;SDS011;9762;52.490;13.410;2023-04-15T06:39:24;11.80;;;10.43;;
19255;SDS011;9762;52.490;13.410;2023-04-15T06:41:50;12.07;;;10.50;;
19255;SDS011;9762;52.490;13.410;2023-04-15T06:44:17;12.60;;;11.13;;
19255;SDS011;9762;52.490;13.410;2023-04-15T06:46:42;14.50;;;9.73;;
19255;SDS011;9762;52.490;13.410;2023-04-15T06:49:09;13.60;;;10.83;;
19255;SDS011;9762;52.490;13.410;2023-04-15T06:51:35;13.53;;;10.63;;
19255;SDS011;9762;52.490;13.410;2023-04-15T06:54:01;15.50;;;10.30;;
19255;SDS011;9762;52.490;13.410;2023-04-15T06:56:29;12.37;;;9.87;;
19255;SDS011;9762;52.490;13.410;2023-04-15T06:58:56;13.60;;;9.57;;
19255;SDS011;9762;52.490;13.410;2023-04-15T07:01:21;12.93;;;10.20;;
19255;SDS011;9762;52.490;13.410;2023-04-15T07:03:47;12.63;;;9.60;;
19255;SDS011;9762;52.490;13.410;2023-04-15T07:06:13;11.07;;;10.03;;
19255;SDS011;9762;52.490;13.410;2023-04-15T07:08:38;10.03;;;9.23;;
19255;SDS011;9762;52.490;13.410;2023-04-15T07:11:04;11.90;;;10.67;;
19255;SDS011;9762;52.490;13.410;2023-04-15T07:13:30;10.13;;;9.23;;
19255;SDS011;9762;52.490;13.410;2023-04-15T07:15:56;11.37;;;9.70;;
19255;SDS011;9762;52.490;13.410;2023-04-15T07:18:22;10.73;;;9.33;;
19255;SDS011;9762;52.490;13.410;2023-04-15T07:20:47;11.63;;;9.30;;
19255;SDS011;9762;52.490;13.410;2023-04-15T07:23:13;9.83;;;8.40;;
19255;SDS011;9762;52.490;13.410;2023-04-15T07:25:39;9.37;;;8.47;;
19255;SDS011;9762;52.490;13.410;2023-04-15T07:28:05;10.37;;;9.03;;
19255;SDS011;9762;52.490;13.410;2023-04-15T07:30:30;9.97;;;8.97;;
19255;SDS011;9762;52.490;13.410;2023-04-15T07:32:57;9.80;;;8.70;;
19255;SDS011;9762;52.490;13.410;2023-04-15T07:35:23;9.70;;;8.80;;
19255;SDS011;9762;52.490;13.410;2023-04-15T07:37:49;9.97;;;9.03;;
19255;SDS011;9762;52.490;13.410;2023-04-15T07:40:16;16.83;;;9.77;;
19255;SDS011;9762;52.490;13.410;2023-04-15T07:42:42;11.50;;;9.50;;
19255;SDS011;9762;52.490;13.410;2023-04-15T07:45:08;10.77;;;9.53;;
19255;SDS011;9762;52.490;13.410;2023-04-15T07:47:34;10.53;;;9.43;;
19255;SDS011;9762;52.490;13.410;2023-04-15T07:50:00;11.07;;;9.10;;
19255;SDS011;9762;52.490;13.410;2023-04-15T07:52:26;11.67;;;9.40;;
19255;SDS011;9762;52.490;13.410;2023-04-15T07:54:52;10.60;;;9.50;;
19255;SDS011;9762;52.490;13.410;2023-04-15T07:57:17;10.80;;;9.03;;
19255;SDS011;9762;52.490;13.410;2023-04-15T07:59:43;10.53;;;9.50;;
19255;SDS011;9762;52.490;13.410;2023-04-15T08:02:10;10.03;;;9.23;;
19255;SDS011;9762;52.490;13.410;2023-04-15T08:04:35;10.53;;;9.43;;
19255;SDS011;9762;52.490;13.410;2023-04-15T08:07:02;11.17;;;10.07;;
19255;SDS011;9762;52.490;13.410;2023-04-15T08:09:28;12.83;;;10.10;;
19255;SDS011;9762;52.490;13.410;2023-04-15T08:11:54;10.60;;;9.53;;
19255;SDS011;9762;52.490;13.410;2023-04-15T08:14:21;11.83;;;10.03;;
19255;SDS011;9762;52.490;13.410;2023-04-15T08:16:47;11.93;;;10.37;;
19255;SDS011;9762;52.490;13.410;2023-04-15T08:19:12;10.13;;;9.23;;
19255;SDS011;9762;52.490;13.410;2023-04-15T08:21:38;10.40;;;9.43;;
19255;SDS011;9762;52.490;13.410;2023-04-15T08:24:04;12.17;;;10.00;;
19255;SDS011;9762;52.490;13.410;2023-04-15T08:26:31;10.43;;;9.53;;
19255;SDS011;9762;52.490;13.410;2023-04-15T08:28:56;20.50;;;16.87;;
19255;SDS011;9762;52.490;13.410;2023-04-15T08:31:22;12.60;;;11.27;;
19255;SDS011;9762;52.490;13.410;2023-04-15T08:33:48;13.83;;;10.90;;
19255;SDS011;9762;52.490;13.410;2023-04-15T08:36:16;11.93;;;10.73;;
19255;SDS011;9762;52.490;13.410;2023-04-15T08:38:43;16.17;;;10.67;;
19255;SDS011;9762;52.490;13.410;2023-04-15T08:41:22;12.37;;;11.17;;
19255;SDS011;9762;52.490;13.410;2023-04-15T08:43:56;12.40;;;11.10;;
19255;SDS011;9762;52.490;13.410;2023-04-15T08:46:22;11.67;;;10.53;;
19255;SDS011;9762;52.490;13.410;2023-04-15T08:48:49;11.83;;;10.83;;
19255;SDS011;9762;52.490;13.410;2023-04-15T08:51:17;11.30;;;10.13;;
19255;SDS011;9762;52.490;13.410;2023-04-15T08:53:44;12.43;;;10.67;;
19255;SDS011;9762;52.490;13.410;2023-04-15T08:56:11;11.17;;;10.07;;
19255;SDS011;9762;52.490;13.410;2023-04-15T08:58:38;12.07;;;10.97;;
19255;SDS011;9762;52.490;13.410;2023-04-15T09:01:05;13.43;;;11.20;;
19255;SDS011;9762;52.490;13.410;2023-04-15T09:03:31;14.83;;;10.63;;
19255;SDS011;9762;52.490;13.410;2023-04-15T09:05:58;11.83;;;10.63;;
19255;SDS011;9762;52.490;13.410;2023-04-15T09:08:24;12.03;;;10.80;;
19255;SDS011;9762;52.490;13.410;2023-04-15T09:10:50;12.50;;;11.00;;
19255;SDS011;9762;52.490;13.410;2023-04-15T09:13:17;12.27;;;11.07;;
19255;SDS011;9762;52.490;13.410;2023-04-15T09:15:43;12.00;;;10.80;;
19255;SDS011;9762;52.490;13.410;2023-04-15T09:18:10;11.83;;;10.73;;
19255;SDS011;9762;52.490;13.410;2023-04-15T09:20:38;11.67;;;10.57;;
19255;SDS011;9762;52.490;13.410;2023-04-15T09:23:12;11.43;;;10.23;;
19255;SDS011;9762;52.490;13.410;2023-04-15T09:25:41;10.90;;;9.90;;
19255;SDS011;9762;52.490;13.410;2023-04-15T09:28:07;11.77;;;10.67;;
19255;SDS011;9762;52.490;13.410;2023-04-15T09:30:33;13.87;;;11.20;;
19255;SDS011;9762;52.490;13.410;2023-04-15T09:33:02;11.60;;;10.50;;
19255;SDS011;9762;52.490;13.410;2023-04-15T09:35:32;12.13;;;11.13;;
19255;SDS011;9762;52.490;13.410;2023-04-15T09:38:05;12.13;;;11.03;;
19255;SDS011;9762;52.490;13.410;2023-04-15T09:43:01;11.00;;;10.10;;
19255;SDS011;9762;52.490;13.410;2023-04-15T09:45:30;10.60;;;9.60;;
19255;SDS011;9762;52.490;13.410;2023-04-15T09:47:57;11.50;;;10.47;;
19255;SDS011;9762;52.490;13.410;2023-04-15T09:50:26;10.70;;;9.70;;
19255;SDS011;9762;52.490;13.410;2023-04-15T09:52:55;10.60;;;9.70;;
19255;SDS011;9762;52.490;13.410;2023-04-15T09:55:21;9.73;;;8.83;;
19255;SDS011;9762;52.490;13.410;2023-04-15T09:57:47;10.47;;;9.47;;
19255;SDS011;9762;52.490;13.410;2023-04-15T10:00:13;13.10;;;10.10;;
19255;SDS011;9762;52.490;13.410;2023-04-15T10:02:39;11.60;;;10.50;;
19255;SDS011;9762;52.490;13.410;2023-04-15T10:05:06;10.93;;;9.93;;
19255;SDS011;9762;52.490;13.410;2023-04-15T10:07:35;10.13;;;9.13;;
19255;SDS011;9762;52.490;13.410;2023-04-15T10:10:02;11.07;;;10.03;;
19255;SDS011;9762;52.490;13.410;2023-04-15T10:12:29;14.43;;;9.90;;
19255;SDS011;9762;52.490;13.410;2023-04-15T10:14:58;10.93;;;9.93;;
19255;SDS011;9762;52.490;13.410;2023-04-15T10:17:32;10.60;;;9.60;;
19255;SDS011;9762;52.490;13.410;2023-04-15T10:20:02;10.73;;;9.70;;
19255;SDS011;9762;52.490;13.410;2023-04-15T10:22:29;11.03;;;10.10;;
19255;SDS011;9762;52.490;13.410;2023-04-15T10:24:56;11.13;;;9.77;;
19255;SDS011;9762;52.490;13.410;2023-04-15T10:27:24;10.93;;;9.93;;
19255;SDS011;9762;52.490;13.410;2023-04-15T10:29:51;15.00;;;13.57;;
19255;SDS011;9762;52.490;13.410;2023-04-15T10:32:18;12.53;;;11.33;;
19255;SDS011;9762;52.490;13.410;2023-04-15T10:34:45;11.23;;;9.73;;
19255;SDS011;9762;52.490;13.410;2023-04-15T10:37:18;11.80;;;9.83;;
19255;SDS011;9762;52.490;13.410;2023-04-15T10:39:45;10.13;;;9.23;;
19255;SDS011;9762;52.490;13.410;2023-04-15T10:42:12;10.43;;;9.33;;
19255;SDS011;9762;52.490;13.410;2023-04-15T10:44:43;10.50;;;9.50;;
19255;SDS011;9762;52.490;13.410;2023-04-15T10:47:19;10.57;;;9.57;;
19255;SDS011;9762;52.490;13.410;2023-04-15T10:49:46;11.87;;;9.00;;
19255;SDS011;9762;52.490;13.410;2023-04-15T10:52:15;9.67;;;8.73;;
19255;SDS011;9762;52.490;13.410;2023-04-15T10:54:48;9.03;;;8.23;;
19255;SDS011;9762;52.490;13.410;2023-04-15T10:57:14;9.63;;;8.73;;
19255;SDS011;9762;52.490;13.410;2023-04-15T11:00:00;10.10;;;8.47;;
19255;SDS011;9762;52.490;13.410;2023-04-15T11:05:06;9.87;;;8.97;;
19255;SDS011;9762;52.490;13.410;2023-04-15T11:12:45;9.50;;;8.70;;
19255;SDS011;9762;52.490;13.410;2023-04-15T11:15:34;9.83;;;8.60;;
19255;SDS011;9762;52.490;13.410;2023-04-15T11:18:24;9.37;;;8.57;;
19255;SDS011;9762;52.490;13.410;2023-04-15T11:20:56;10.90;;;9.77;;
19255;SDS011;9762;52.490;13.410;2023-04-15T11:23:39;10.00;;;9.07;;
19255;SDS011;9762;52.490;13.410;2023-04-15T11:26:11;9.40;;;8.57;;
19255;SDS011;9762;52.490;13.410;2023-04-15T11:28:37;9.77;;;8.53;;
19255;SDS011;9762;52.490;13.410;2023-04-15T11:31:06;9.87;;;8.87;;
19255;SDS011;9762;52.490;13.410;2023-04-15T11:33:35;10.23;;;9.23;;
19255;SDS011;9762;52.490;13.410;2023-04-15T11:36:01;9.80;;;8.90;;
19255;SDS011;9762;52.490;13.410;2023-04-15T11:38:28;9.27;;;8.50;;
19255;SDS011;9762;52.490;13.410;2023-04-15T11:40:54;9.93;;;9.03;;
19255;SDS011;9762;52.490;13.410;2023-04-15T11:43:20;8.77;;;8.03;;
19255;SDS011;9762;52.490;13.410;2023-04-15T11:45:54;9.70;;;8.70;;
19255;SDS011;9762;52.490;13.410;2023-04-15T11:48:22;9.27;;;8.40;;
19255;SDS011;9762;52.490;13.410;2023-04-15T11:50:53;9.00;;;8.30;;
19255;SDS011;9762;52.490;13.410;2023-04-15T11:53:23;9.23;;;8.53;;
19255;SDS011;9762;52.490;13.410;2023-04-15T11:55:49;8.83;;;8.20;;
19255;SDS011;9762;52.490;13.410;2023-04-15T12:00:48;10.33;;;9.43;;
19255;SDS011;9762;52.490;13.410;2023-04-15T12:03:17;8.53;;;7.83;;
19255;SDS011;9762;52.490;13.410;2023-04-15T12:11:20;11.27;;;8.73;;
19255;SDS011;9762;52.490;13.410;2023-04-15T12:13:46;9.23;;;8.43;;
19255;SDS011;9762;52.490;13.410;2023-04-15T12:16:16;9.97;;;8.97;;
19255;SDS011;9762;52.490;13.410;2023-04-15T12:18:46;10.57;;;8.80;;
19255;SDS011;9762;52.490;13.410;2023-04-15T12:21:20;10.20;;;9.30;;
19255;SDS011;9762;52.490;13.410;2023-04-15T12:23:50;9.83;;;8.83;;
19255;SDS011;9762;52.490;13.410;2023-04-15T12:26:18;8.43;;;7.73;;
19255;SDS011;9762;52.490;13.410;2023-04-15T12:28:58;8.27;;;7.67;;
19255;SDS011;9762;52.490;13.410;2023-04-15T12:31:29;8.13;;;7.40;;
19255;SDS011;9762;52.490;13.410;2023-04-15T12:33:55;8.80;;;8.13;;
19255;SDS011;9762;52.490;13.410;2023-04-15T12:36:22;7.23;;;6.73;;
19255;SDS011;9762;52.490;13.410;2023-04-15T12:38:48;7.43;;;6.80;;
19255;SDS011;9762;52.490;13.410;2023-04-15T12:41:14;6.90;;;6.40;;
19255;SDS011;9762;52.490;13.410;2023-04-15T12:43:40;6.87;;;6.47;;
19255;SDS011;9762;52.490;13.410;2023-04-15T12:46:08;7.13;;;6.53;;
19255;SDS011;9762;52.490;13.410;2023-04-15T12:48:34;7.87;;;7.00;;
19255;SDS011;9762;52.490;13.410;2023-04-15T12:51:00;7.40;;;6.80;;
19255;SDS011;9762;52.490;13.410;2023-04-15T12:53:26;6.90;;;6.30;;
19255;SDS011;9762;52.490;13.410;2023-04-15T12:55:52;7.40;;;6.67;;
19255;SDS011;9762;52.490;13.410;2023-04-15T12:58:18;7.10;;;6.37;;
19255;SDS011;9762;52.490;13.410;2023-04-15T13:00:43;7.37;;;6.67;;
19255;SDS011;9762;52.490;13.410;2023-04-15T13:03:09;7.30;;;6.60;;
19255;SDS011;9762;52.490;13.410;2023-04-15T13:05:35;7.13;;;6.53;;
19255;SDS011;9762;52.490;13.410;2023-04-15T13:08:03;6.50;;;6.00;;
19255;SDS011;9762;52.490;13.410;2023-04-15T13:10:29;6.20;;;5.70;;
19255;SDS011;9762;52.490;13.410;2023-04-15T13:12:55;6.63;;;6.03;;
19255;SDS011;9762;52.490;13.410;2023-04-15T13:15:21;6.77;;;6.17;;
19255;SDS011;9762;52.490;13.410;2023-04-15T13:17:47;6.60;;;6.13;;
19255;SDS011;9762;52.490;13.410;2023-04-15T13:20:13;7.07;;;6.47;;
19255;SDS011;9762;52.490;13.410;2023-04-15T13:22:39;7.03;;;6.50;;
19255;SDS011;9762;52.490;13.410;2023-04-15T13:25:05;11.97;;;7.30;;
19255;SDS011;9762;52.490;13.410;2023-04-15T13:27:32;7.40;;;6.77;;
19255;SDS011;9762;52.490;13.410;2023-04-15T13:29:57;7.50;;;6.60;;
19255;SDS011;9762;52.490;13.410;2023-04-15T13:32:23;5.80;;;5.40;;
19255;SDS011;9762;52.490;13.410;2023-04-15T13:34:49;6.17;;;5.77;;
19255;SDS011;9762;52.490;13.410;2023-04-15T13:37:15;5.80;;;5.30;;
19255;SDS011;9762;52.490;13.410;2023-04-15T13:39:41;5.50;;;5.10;;
19255;SDS011;9762;52.490;13.410;2023-04-15T13:42:07;5.60;;;5.20;;
19255;SDS011;9762;52.490;13.410;2023-04-15T13:44:32;6.17;;;5.77;;
19255;SDS011;9762;52.490;13.410;2023-04-15T13:46:59;7.90;;;6.33;;
19255;SDS011;9762;52.490;13.410;2023-04-15T13:49:24;6.30;;;5.80;;
19255;SDS011;9762;52.490;13.410;2023-04-15T13:51:50;6.43;;;5.93;;
19255;SDS011;9762;52.490;13.410;2023-04-15T13:54:16;8.53;;;5.60;;
19255;SDS011;9762;52.490;13.410;2023-04-15T13:56:41;6.13;;;5.53;;
19255;SDS011;9762;52.490;13.410;2023-04-15T13:59:07;7.33;;;6.30;;
19255;SDS011;9762;52.490;13.410;2023-04-15T14:01:33;7.23;;;6.63;;
19255;SDS011;9762;52.490;13.410;2023-04-15T14:03:59;7.50;;;6.80;;
19255;SDS011;9762;52.490;13.410;2023-04-15T14:06:25;7.13;;;6.53;;
19255;SDS011;9762;52.490;13.410;2023-04-15T14:08:51;7.00;;;6.30;;
19255;SDS011;9762;52.490;13.410;2023-04-15T14:11:17;6.67;;;6.17;;
19255;SDS011;9762;52.490;13.410;2023-04-15T14:13:42;6.87;;;6.17;;
19255;SDS011;9762;52.490;13.410;2023-04-15T14:16:08;5.60;;;5.20;;
19255;SDS011;9762;52.490;13.410;2023-04-15T14:18:34;5.80;;;5.40;;
19255;SDS011;9762;52.490;13.410;2023-04-15T14:21:01;6.70;;;6.10;;
19255;SDS011;9762;52.490;13.410;2023-04-15T14:23:27;5.60;;;5.30;;
19255;SDS011;9762;52.490;13.410;2023-04-15T14:25:53;5.60;;;5.10;;
19255;SDS011;9762;52.490;13.410;2023-04-15T14:28:19;5.53;;;5.17;;
19255;SDS011;9762;52.490;13.410;2023-04-15T14:30:44;5.70;;;5.30;;
19255;SDS011;9762;52.490;13.410;2023-04-15T14:33:10;6.07;;;5.57;;
19255;SDS011;9762;52.490;13.410;2023-04-15T14:35:36;5.17;;;4.87;;
19255;SDS011;9762;52.490;13.410;2023-04-15T14:38:02;5.87;;;5.17;;
19255;SDS011;9762;52.490;13.410;2023-04-15T14:40:27;9.03;;;5.63;;
19255;SDS011;9762;52.490;13.410;2023-04-15T14:42:53;5.77;;;5.37;;
19255;SDS011;9762;52.490;13.410;2023-04-15T14:45:19;5.57;;;5.00;;